sensor_id;sensor_type;location;lat;lon;timestamp;P1;durP1;ratioP1;P2;durP2;ratioP2
11743;SDS011;5929;51.906;7.674;2022-08-19T00:01:54;7.78;;;5.90;;
11743;SDS011;5929;51.906;7.674;2022-08-19T00:04:23;9.27;;;6.15;;
11743;SDS011;5929;51.906;7.674;2022-08-19T00:06:52;8.82;;;5.88;;
11743;SDS011;5929;51.906;7.674;2022-08-19T00:09:22;8.57;;;6.22;;
11743;SDS011;5929;51.906;7.674;2022-08-19T00:11:51;10.23;;;6.88;;
11743;SDS011;5929;51.906;7.674;2022-08-19T00:14:20;11.45;;;6.18;;
11743;SDS011;5929;51.906;7.674;2022-08-19T00:16:48;8.98;;;6.80;;
11743;SDS011;5929;51.906;7.674;2022-08-19T00:19:16;9.73;;;6.68;;
11743;SDS011;5929;51.906;7.674;2022-08-19T00:21:43;7.82;;;6.15;;
11743;SDS011;5929;51.906;7.674;2022-08-19T00:24:11;10.88;;;6.18;;
11743;SDS011;5929;51.906;7.674;2022-08-19T00:26:40;8.18;;;6.00;;
11743;SDS011;5929;51.906;7.674;2022-08-19T00:29:10;8.60;;;6.55;;
11743;SDS011;5929;51.906;7.674;2022-08-19T00:31:39;9.90;;;6.72;;
11743;SDS011;5929;51.906;7.674;2022-08-19T00:34:06;8.82;;;6.80;;
11743;SDS011;5929;51.906;7.674;2022-08-19T00:36:33;11.48;;;6.82;;
11743;SDS011;5929;51.906;7.674;2022-08-19T00:39:00;12.93;;;7.07;;
11743;SDS011;5929;51.906;7.674;2022-08-19T00:41:28;11.20;;;8.15;;
11743;SDS011;5929;51.906;7.674;2022-08-19T00:43:59;9.75;;;6.75;;
11743;SDS011;5929;51.906;7.674;2022-08-19T00:46:29;9.32;;;6.75;;
11743;SDS011;5929;51.906;7.674;2022-08-19T00:48:56;9.40;;;7.07;;
11743;SDS011;5929;51.906;7.674;2022-08-19T00:51:24;9.40;;;6.72;;
11743;SDS011;5929;51.906;7.674;2022-08-19T00:53:54;10.32;;;7.15;;
11743;SDS011;5929;51.906;7.674;2022-08-19T00:56:22;12.50;;;6.85;;
11743;SDS011;5929;51.906;7.674;2022-08-19T00:58:51;9.77;;;7.38;;
11743;SDS011;5929;51.906;7.674;2022-08-19T01:01:19;9.40;;;6.47;;
11743;SDS011;5929;51.906;7.674;2022-08-19T01:03:48;10.45;;;7.28;;
11743;SDS011;5929;51.906;7.674;2022-08-19T01:06:14;10.60;;;7.07;;
11743;SDS011;5929;51.906;7.674;2022-08-19T01:08:42;10.15;;;8.30;;
11743;SDS011;5929;51.906;7.674;2022-08-19T01:11:09;11.63;;;8.50;;
11743;SDS011;5929;51.906;7.674;2022-08-19T01:13:35;10.88;;;8.18;;
11743;SDS011;5929;51.906;7.674;2022-08-19T01:16:04;10.98;;;7.68;;
11743;SDS011;5929;51.906;7.674;2022-08-19T01:18:35;12.02;;;7.80;;
11743;SDS011;5929;51.906;7.674;2022-08-19T01:21:09;12.85;;;7.80;;
11743;SDS011;5929;51.906;7.674;2022-08-19T01:23:43;10.32;;;8.63;;
11743;SDS011;5929;51.906;7.674;2022-08-19T01:26:14;12.25;;;8.85;;
11743;SDS011;5929;51.906;7.674;2022-08-19T01:28:44;15.63;;;9.27;;
11743;SDS011;5929;51.906;7.674;2022-08-19T01:31:14;12.90;;;8.57;;
11743;SDS011;5929;51.906;7.674;2022-08-19T01:33:42;11.40;;;9.32;;
11743;SDS011;5929;51.906;7.674;2022-08-19T01:36:12;13.90;;;9.45;;
11743;SDS011;5929;51.906;7.674;2022-08-19T01:38:43;11.80;;;9.25;;
11743;SDS011;5929;51.906;7.674;2022-08-19T01:41:11;12.73;;;9.00;;
11743;SDS011;5929;51.906;7.674;2022-08-19T01:43:38;14.20;;;9.38;;
11743;SDS011;5929;51.906;7.674;2022-08-19T01:46:05;11.40;;;9.82;;
11743;SDS011;5929;51.906;7.674;2022-08-19T01:48:36;13.13;;;9.10;;
11743;SDS011;5929;51.906;7.674;2022-08-19T01:51:05;14.02;;;9.98;;
11743;SDS011;5929;51.906;7.674;2022-08-19T01:53:33;12.52;;;10.18;;
11743;SDS011;5929;51.906;7.674;2022-08-19T01:56:04;14.38;;;10.07;;
11743;SDS011;5929;51.906;7.674;2022-08-19T01:58:33;14.60;;;10.77;;
11743;SDS011;5929;51.906;7.674;2022-08-19T02:01:05;14.75;;;10.27;;
11743;SDS011;5929;51.906;7.674;2022-08-19T02:03:32;15.35;;;11.88;;
11743;SDS011;5929;51.906;7.674;2022-08-19T02:06:00;12.07;;;10.25;;
11743;SDS011;5929;51.906;7.674;2022-08-19T02:08:30;15.25;;;10.55;;
11743;SDS011;5929;51.906;7.674;2022-08-19T02:10:59;15.75;;;11.23;;
11743;SDS011;5929;51.906;7.674;2022-08-19T02:13:27;13.40;;;10.70;;
11743;SDS011;5929;51.906;7.674;2022-08-19T02:15:54;14.75;;;11.18;;
11743;SDS011;5929;51.906;7.674;2022-08-19T02:18:21;14.55;;;9.60;;
11743;SDS011;5929;51.906;7.674;2022-08-19T02:20:49;13.80;;;10.07;;
11743;SDS011;5929;51.906;7.674;2022-08-19T02:23:20;12.95;;;9.20;;
11743;SDS011;5929;51.906;7.674;2022-08-19T02:25:47;15.15;;;10.60;;
11743;SDS011;5929;51.906;7.674;2022-08-19T02:28:14;13.48;;;10.02;;
11743;SDS011;5929;51.906;7.674;2022-08-19T02:30:43;13.20;;;9.85;;
11743;SDS011;5929;51.906;7.674;2022-08-19T02:33:10;15.18;;;10.45;;
11743;SDS011;5929;51.906;7.674;2022-08-19T02:35:36;12.20;;;10.45;;
11743;SDS011;5929;51.906;7.674;2022-08-19T02:38:07;13.35;;;10.95;;
11743;SDS011;5929;51.906;7.674;2022-08-19T02:40:53;15.93;;;11.32;;
11743;SDS011;5929;51.906;7.674;2022-08-19T02:43:22;14.00;;;10.82;;
11743;SDS011;5929;51.906;7.674;2022-08-19T02:45:52;14.88;;;11.15;;
11743;SDS011;5929;51.906;7.674;2022-08-19T02:48:20;15.35;;;11.20;;
11743;SDS011;5929;51.906;7.674;2022-08-19T02:50:48;15.75;;;11.80;;
11743;SDS011;5929;51.906;7.674;2022-08-19T02:53:19;15.07;;;11.82;;
11743;SDS011;5929;51.906;7.674;2022-08-19T02:55:48;14.45;;;11.07;;
11743;SDS011;5929;51.906;7.674;2022-08-19T02:58:16;14.75;;;11.48;;
11743;SDS011;5929;51.906;7.674;2022-08-19T03:00:44;16.67;;;11.75;;
11743;SDS011;5929;51.906;7.674;2022-08-19T03:03:13;16.90;;;13.50;;
11743;SDS011;5929;51.906;7.674;2022-08-19T03:05:41;17.20;;;12.23;;
11743;SDS011;5929;51.906;7.674;2022-08-19T03:08:10;18.70;;;13.00;;
11743;SDS011;5929;51.906;7.674;2022-08-19T03:10:39;16.08;;;13.35;;
11743;SDS011;5929;51.906;7.674;2022-08-19T03:13:09;15.82;;;12.85;;
11743;SDS011;5929;51.906;7.674;2022-08-19T03:15:51;17.92;;;14.07;;
11743;SDS011;5929;51.906;7.674;2022-08-19T03:18:19;16.48;;;12.77;;
11743;SDS011;5929;51.906;7.674;2022-08-19T03:21:00;17.83;;;13.32;;
11743;SDS011;5929;51.906;7.674;2022-08-19T03:23:27;15.77;;;12.38;;
11743;SDS011;5929;51.906;7.674;2022-08-19T03:25:58;16.33;;;12.70;;
11743;SDS011;5929;51.906;7.674;2022-08-19T03:28:29;17.25;;;12.43;;
11743;SDS011;5929;51.906;7.674;2022-08-19T03:30:59;15.63;;;11.70;;
11743;SDS011;5929;51.906;7.674;2022-08-19T03:33:29;15.73;;;11.18;;
11743;SDS011;5929;51.906;7.674;2022-08-19T03:36:01;15.60;;;11.77;;
11743;SDS011;5929;51.906;7.674;2022-08-19T03:38:30;13.90;;;10.27;;
11743;SDS011;5929;51.906;7.674;2022-08-19T03:40:57;14.95;;;10.00;;
11743;SDS011;5929;51.906;7.674;2022-08-19T03:43:24;12.95;;;9.30;;
11743;SDS011;5929;51.906;7.674;2022-08-19T03:45:59;11.77;;;10.13;;
11743;SDS011;5929;51.906;7.674;2022-08-19T03:48:31;11.75;;;9.52;;
11743;SDS011;5929;51.906;7.674;2022-08-19T03:50:59;13.18;;;10.75;;
11743;SDS011;5929;51.906;7.674;2022-08-19T03:53:27;16.88;;;11.27;;
11743;SDS011;5929;51.906;7.674;2022-08-19T03:55:55;15.13;;;11.93;;
11743;SDS011;5929;51.906;7.674;2022-08-19T03:58:24;14.15;;;11.80;;
11743;SDS011;5929;51.906;7.674;2022-08-19T04:00:52;14.45;;;11.35;;
11743;SDS011;5929;51.906;7.674;2022-08-19T04:03:19;16.48;;;10.63;;
11743;SDS011;5929;51.906;7.674;2022-08-19T04:05:47;16.20;;;11.98;;
11743;SDS011;5929;51.906;7.674;2022-08-19T04:08:14;16.83;;;12.05;;
11743;SDS011;5929;51.906;7.674;2022-08-19T04:10:47;17.80;;;11.90;;
11743;SDS011;5929;51.906;7.674;2022-08-19T04:13:15;13.75;;;11.07;;
11743;SDS011;5929;51.906;7.674;2022-08-19T04:15:43;18.52;;;12.57;;
11743;SDS011;5929;51.906;7.674;2022-08-19T04:18:12;16.65;;;12.27;;
11743;SDS011;5929;51.906;7.674;2022-08-19T04:20:40;17.10;;;13.25;;
11743;SDS011;5929;51.906;7.674;2022-08-19T04:23:11;19.02;;;14.45;;
11743;SDS011;5929;51.906;7.674;2022-08-19T04:25:39;19.98;;;13.80;;
11743;SDS011;5929;51.906;7.674;2022-08-19T04:28:09;17.02;;;13.40;;
11743;SDS011;5929;51.906;7.674;2022-08-19T04:30:37;17.65;;;13.63;;
11743;SDS011;5929;51.906;7.674;2022-08-19T04:33:06;18.15;;;12.85;;
11743;SDS011;5929;51.906;7.674;2022-08-19T04:35:37;17.63;;;13.43;;
11743;SDS011;5929;51.906;7.674;2022-08-19T04:38:06;16.90;;;12.98;;
11743;SDS011;5929;51.906;7.674;2022-08-19T04:40:39;19.83;;;13.13;;
11743;SDS011;5929;51.906;7.674;2022-08-19T04:43:24;15.10;;;12.77;;
11743;SDS011;5929;51.906;7.674;2022-08-19T04:45:51;16.58;;;12.60;;
11743;SDS011;5929;51.906;7.674;2022-08-19T04:48:18;15.60;;;12.68;;
11743;SDS011;5929;51.906;7.674;2022-08-19T04:50:51;18.52;;;12.57;;
11743;SDS011;5929;51.906;7.674;2022-08-19T04:53:21;15.00;;;12.32;;
11743;SDS011;5929;51.906;7.674;2022-08-19T04:55:50;16.10;;;12.40;;
11743;SDS011;5929;51.906;7.674;2022-08-19T04:58:17;16.83;;;12.38;;
11743;SDS011;5929;51.906;7.674;2022-08-19T05:00:44;18.33;;;12.45;;
11743;SDS011;5929;51.906;7.674;2022-08-19T05:03:13;18.25;;;13.88;;
11743;SDS011;5929;51.906;7.674;2022-08-19T05:05:42;16.73;;;14.18;;
11743;SDS011;5929;51.906;7.674;2022-08-19T05:08:11;17.05;;;13.20;;
11743;SDS011;5929;51.906;7.674;2022-08-19T05:10:47;14.35;;;12.18;;
11743;SDS011;5929;51.906;7.674;2022-08-19T05:13:18;17.75;;;11.20;;
11743;SDS011;5929;51.906;7.674;2022-08-19T05:15:52;13.20;;;11.50;;
11743;SDS011;5929;51.906;7.674;2022-08-19T05:18:20;17.48;;;10.75;;
11743;SDS011;5929;51.906;7.674;2022-08-19T05:21:05;17.40;;;10.90;;
11743;SDS011;5929;51.906;7.674;2022-08-19T05:23:50;16.27;;;11.32;;
11743;SDS011;5929;51.906;7.674;2022-08-19T05:26:18;14.75;;;11.02;;
11743;SDS011;5929;51.906;7.674;2022-08-19T05:28:45;18.27;;;11.30;;
11743;SDS011;5929;51.906;7.674;2022-08-19T05:31:12;15.43;;;11.70;;
11743;SDS011;5929;51.906;7.674;2022-08-19T05:33:39;16.27;;;12.18;;
11743;SDS011;5929;51.906;7.674;2022-08-19T05:36:06;13.23;;;11.73;;
11743;SDS011;5929;51.906;7.674;2022-08-19T05:38:36;17.52;;;13.10;;
11743;SDS011;5929;51.906;7.674;2022-08-19T05:41:06;19.08;;;13.48;;
11743;SDS011;5929;51.906;7.674;2022-08-19T05:43:35;18.48;;;12.73;;
11743;SDS011;5929;51.906;7.674;2022-08-19T05:46:02;13.70;;;12.18;;
11743;SDS011;5929;51.906;7.674;2022-08-19T05:48:31;17.60;;;13.25;;
11743;SDS011;5929;51.906;7.674;2022-08-19T05:50:58;16.55;;;13.48;;
11743;SDS011;5929;51.906;7.674;2022-08-19T05:53:29;16.00;;;12.57;;
11743;SDS011;5929;51.906;7.674;2022-08-19T05:55:56;17.88;;;13.57;;
11743;SDS011;5929;51.906;7.674;2022-08-19T05:58:25;16.40;;;13.48;;
11743;SDS011;5929;51.906;7.674;2022-08-19T06:00:53;16.05;;;12.65;;
11743;SDS011;5929;51.906;7.674;2022-08-19T06:03:20;16.77;;;13.85;;
11743;SDS011;5929;51.906;7.674;2022-08-19T06:05:47;16.98;;;12.88;;
11743;SDS011;5929;51.906;7.674;2022-08-19T06:08:14;15.35;;;12.65;;
11743;SDS011;5929;51.906;7.674;2022-08-19T06:10:43;16.40;;;14.05;;
11743;SDS011;5929;51.906;7.674;2022-08-19T06:13:10;16.85;;;13.73;;
11743;SDS011;5929;51.906;7.674;2022-08-19T06:15:36;20.50;;;14.07;;
11743;SDS011;5929;51.906;7.674;2022-08-19T06:18:05;15.90;;;12.38;;
11743;SDS011;5929;51.906;7.674;2022-08-19T06:20:32;17.08;;;14.57;;
11743;SDS011;5929;51.906;7.674;2022-08-19T06:22:58;18.00;;;13.88;;
11743;SDS011;5929;51.906;7.674;2022-08-19T06:25:25;16.67;;;13.07;;
11743;SDS011;5929;51.906;7.674;2022-08-19T06:27:52;19.15;;;15.43;;
11743;SDS011;5929;51.906;7.674;2022-08-19T06:30:19;20.10;;;13.80;;
11743;SDS011;5929;51.906;7.674;2022-08-19T06:32:46;20.45;;;15.02;;
11743;SDS011;5929;51.906;7.674;2022-08-19T06:35:15;17.55;;;13.95;;
11743;SDS011;5929;51.906;7.674;2022-08-19T06:37:42;20.75;;;15.50;;
11743;SDS011;5929;51.906;7.674;2022-08-19T06:40:10;25.98;;;16.48;;
11743;SDS011;5929;51.906;7.674;2022-08-19T06:42:37;18.92;;;15.00;;
11743;SDS011;5929;51.906;7.674;2022-08-19T06:45:05;21.95;;;17.20;;
11743;SDS011;5929;51.906;7.674;2022-08-19T06:47:33;22.15;;;15.98;;
11743;SDS011;5929;51.906;7.674;2022-08-19T06:50:01;21.13;;;17.80;;
11743;SDS011;5929;51.906;7.674;2022-08-19T06:52:31;22.95;;;17.73;;
11743;SDS011;5929;51.906;7.674;2022-08-19T06:54:59;26.25;;;17.73;;
11743;SDS011;5929;51.906;7.674;2022-08-19T06:57:26;23.67;;;17.05;;
11743;SDS011;5929;51.906;7.674;2022-08-19T06:59:57;23.40;;;17.17;;
11743;SDS011;5929;51.906;7.674;2022-08-19T07:02:25;23.33;;;17.80;;
11743;SDS011;5929;51.906;7.674;2022-08-19T07:04:52;24.90;;;17.98;;
11743;SDS011;5929;51.906;7.674;2022-08-19T07:07:22;23.17;;;18.48;;
11743;SDS011;5929;51.906;7.674;2022-08-19T07:09:50;24.83;;;19.05;;
11743;SDS011;5929;51.906;7.674;2022-08-19T07:12:18;26.25;;;18.30;;
11743;SDS011;5929;51.906;7.674;2022-08-19T07:14:45;22.52;;;17.40;;
11743;SDS011;5929;51.906;7.674;2022-08-19T07:17:14;22.42;;;18.40;;
11743;SDS011;5929;51.906;7.674;2022-08-19T07:19:41;23.90;;;17.83;;
11743;SDS011;5929;51.906;7.674;2022-08-19T07:22:08;28.75;;;18.23;;
11743;SDS011;5929;51.906;7.674;2022-08-19T07:24:36;19.48;;;16.75;;
11743;SDS011;5929;51.906;7.674;2022-08-19T07:27:05;21.40;;;18.35;;
11743;SDS011;5929;51.906;7.674;2022-08-19T07:29:34;20.88;;;17.40;;
11743;SDS011;5929;51.906;7.674;2022-08-19T07:32:02;24.73;;;17.40;;
11743;SDS011;5929;51.906;7.674;2022-08-19T07:34:31;20.98;;;18.13;;
11743;SDS011;5929;51.906;7.674;2022-08-19T07:37:02;25.63;;;18.50;;
11743;SDS011;5929;51.906;7.674;2022-08-19T07:39:30;24.20;;;16.58;;
11743;SDS011;5929;51.906;7.674;2022-08-19T07:41:59;22.55;;;17.42;;
11743;SDS011;5929;51.906;7.674;2022-08-19T07:44:29;24.83;;;17.92;;
11743;SDS011;5929;51.906;7.674;2022-08-19T07:46:56;24.60;;;17.80;;
11743;SDS011;5929;51.906;7.674;2022-08-19T07:49:25;27.58;;;19.40;;
11743;SDS011;5929;51.906;7.674;2022-08-19T07:51:52;24.90;;;19.13;;
11743;SDS011;5929;51.906;7.674;2022-08-19T07:54:24;24.20;;;17.10;;
11743;SDS011;5929;51.906;7.674;2022-08-19T07:56:52;26.10;;;19.63;;
11743;SDS011;5929;51.906;7.674;2022-08-19T07:59:19;34.33;;;18.67;;
11743;SDS011;5929;51.906;7.674;2022-08-19T08:01:48;25.02;;;17.08;;
11743;SDS011;5929;51.906;7.674;2022-08-19T08:04:16;40.42;;;20.00;;
11743;SDS011;5929;51.906;7.674;2022-08-19T08:07:01;25.75;;;18.48;;
11743;SDS011;5929;51.906;7.674;2022-08-19T08:09:45;23.30;;;16.75;;
11743;SDS011;5929;51.906;7.674;2022-08-19T08:12:13;20.00;;;15.57;;
11743;SDS011;5929;51.906;7.674;2022-08-19T08:14:43;23.60;;;17.48;;
11743;SDS011;5929;51.906;7.674;2022-08-19T08:17:14;23.35;;;15.75;;
11743;SDS011;5929;51.906;7.674;2022-08-19T08:19:41;22.20;;;16.27;;
11743;SDS011;5929;51.906;7.674;2022-08-19T08:22:09;18.08;;;13.13;;
11743;SDS011;5929;51.906;7.674;2022-08-19T08:25:00;18.73;;;13.15;;
11743;SDS011;5929;51.906;7.674;2022-08-19T08:27:28;19.13;;;12.77;;
11743;SDS011;5929;51.906;7.674;2022-08-19T08:29:56;15.77;;;12.02;;
11743;SDS011;5929;51.906;7.674;2022-08-19T08:32:24;18.88;;;12.07;;
11743;SDS011;5929;51.906;7.674;2022-08-19T08:34:52;14.43;;;12.85;;
11743;SDS011;5929;51.906;7.674;2022-08-19T08:37:22;17.33;;;11.77;;
11743;SDS011;5929;51.906;7.674;2022-08-19T08:39:49;18.23;;;12.50;;
11743;SDS011;5929;51.906;7.674;2022-08-19T08:42:17;14.27;;;11.98;;
11743;SDS011;5929;51.906;7.674;2022-08-19T08:44:49;19.00;;;12.30;;
11743;SDS011;5929;51.906;7.674;2022-08-19T08:47:25;19.35;;;11.43;;
11743;SDS011;5929;51.906;7.674;2022-08-19T08:49:59;15.50;;;11.48;;
11743;SDS011;5929;51.906;7.674;2022-08-19T08:52:29;21.40;;;13.35;;
11743;SDS011;5929;51.906;7.674;2022-08-19T08:55:00;13.55;;;11.38;;
11743;SDS011;5929;51.906;7.674;2022-08-19T08:57:33;16.17;;;11.00;;
11743;SDS011;5929;51.906;7.674;2022-08-19T09:00:04;15.70;;;11.43;;
11743;SDS011;5929;51.906;7.674;2022-08-19T09:02:37;16.05;;;11.32;;
11743;SDS011;5929;51.906;7.674;2022-08-19T09:05:04;15.43;;;11.20;;
11743;SDS011;5929;51.906;7.674;2022-08-19T09:07:38;14.48;;;10.85;;
11743;SDS011;5929;51.906;7.674;2022-08-19T09:10:13;15.40;;;11.30;;
11743;SDS011;5929;51.906;7.674;2022-08-19T09:12:47;12.63;;;9.98;;
11743;SDS011;5929;51.906;7.674;2022-08-19T09:15:25;14.25;;;9.98;;
11743;SDS011;5929;51.906;7.674;2022-08-19T09:18:00;15.32;;;10.18;;
11743;SDS011;5929;51.906;7.674;2022-08-19T09:20:28;12.50;;;9.32;;
11743;SDS011;5929;51.906;7.674;2022-08-19T09:22:56;14.63;;;10.85;;
11743;SDS011;5929;51.906;7.674;2022-08-19T09:25:23;14.13;;;8.90;;
11743;SDS011;5929;51.906;7.674;2022-08-19T09:27:51;13.20;;;9.18;;
11743;SDS011;5929;51.906;7.674;2022-08-19T09:30:22;14.25;;;11.07;;
11743;SDS011;5929;51.906;7.674;2022-08-19T09:32:51;14.13;;;10.35;;
11743;SDS011;5929;51.906;7.674;2022-08-19T09:35:20;11.40;;;10.15;;
11743;SDS011;5929;51.906;7.674;2022-08-19T09:37:49;12.02;;;10.48;;
11743;SDS011;5929;51.906;7.674;2022-08-19T09:40:16;15.70;;;12.43;;
11743;SDS011;5929;51.906;7.674;2022-08-19T09:42:43;17.20;;;11.38;;
11743;SDS011;5929;51.906;7.674;2022-08-19T09:45:12;17.33;;;10.68;;
11743;SDS011;5929;51.906;7.674;2022-08-19T09:47:42;12.55;;;9.50;;
11743;SDS011;5929;51.906;7.674;2022-08-19T09:50:11;11.60;;;8.80;;
11743;SDS011;5929;51.906;7.674;2022-08-19T09:52:39;8.90;;;7.13;;
11743;SDS011;5929;51.906;7.674;2022-08-19T09:55:07;12.15;;;6.93;;
11743;SDS011;5929;51.906;7.674;2022-08-19T09:57:36;7.82;;;6.20;;
11743;SDS011;5929;51.906;7.674;2022-08-19T10:00:04;10.52;;;6.18;;
11743;SDS011;5929;51.906;7.674;2022-08-19T10:02:33;9.63;;;5.65;;
11743;SDS011;5929;51.906;7.674;2022-08-19T10:05:00;10.10;;;5.00;;
11743;SDS011;5929;51.906;7.674;2022-08-19T10:07:48;7.30;;;4.72;;
11743;SDS011;5929;51.906;7.674;2022-08-19T10:10:16;6.95;;;4.63;;
11743;SDS011;5929;51.906;7.674;2022-08-19T10:12:43;7.80;;;4.95;;
11743;SDS011;5929;51.906;7.674;2022-08-19T10:15:12;5.53;;;4.18;;
11743;SDS011;5929;51.906;7.674;2022-08-19T10:17:40;7.43;;;5.03;;
11743;SDS011;5929;51.906;7.674;2022-08-19T10:20:07;7.38;;;4.90;;
11743;SDS011;5929;51.906;7.674;2022-08-19T10:22:34;9.30;;;5.97;;
11743;SDS011;5929;51.906;7.674;2022-08-19T10:25:06;6.45;;;4.60;;
11743;SDS011;5929;51.906;7.674;2022-08-19T10:27:33;6.22;;;4.75;;
11743;SDS011;5929;51.906;7.674;2022-08-19T10:30:03;8.10;;;5.25;;
11743;SDS011;5929;51.906;7.674;2022-08-19T10:32:31;7.07;;;5.05;;
11743;SDS011;5929;51.906;7.674;2022-08-19T10:34:59;6.68;;;4.40;;
11743;SDS011;5929;51.906;7.674;2022-08-19T10:37:25;8.32;;;5.25;;
11743;SDS011;5929;51.906;7.674;2022-08-19T10:39:52;8.73;;;4.72;;
11743;SDS011;5929;51.906;7.674;2022-08-19T10:42:20;7.25;;;4.38;;
11743;SDS011;5929;51.906;7.674;2022-08-19T10:44:49;6.10;;;4.13;;
11743;SDS011;5929;51.906;7.674;2022-08-19T10:47:16;8.27;;;4.38;;
11743;SDS011;5929;51.906;7.674;2022-08-19T10:49:43;5.97;;;4.22;;
11743;SDS011;5929;51.906;7.674;2022-08-19T10:52:32;6.93;;;3.75;;
11743;SDS011;5929;51.906;7.674;2022-08-19T10:54:59;6.03;;;3.88;;
11743;SDS011;5929;51.906;7.674;2022-08-19T10:57:45;6.20;;;3.42;;
11743;SDS011;5929;51.906;7.674;2022-08-19T11:00:13;9.48;;;4.22;;
11743;SDS011;5929;51.906;7.674;2022-08-19T11:02:40;5.97;;;3.30;;
11743;SDS011;5929;51.906;7.674;2022-08-19T11:05:08;6.47;;;3.50;;
11743;SDS011;5929;51.906;7.674;2022-08-19T11:07:35;5.10;;;3.33;;
11743;SDS011;5929;51.906;7.674;2022-08-19T11:10:04;6.72;;;3.60;;
11743;SDS011;5929;51.906;7.674;2022-08-19T11:12:32;8.23;;;3.60;;
11743;SDS011;5929;51.906;7.674;2022-08-19T11:15:00;11.15;;;4.28;;
11743;SDS011;5929;51.906;7.674;2022-08-19T11:17:27;5.45;;;2.67;;
11743;SDS011;5929;51.906;7.674;2022-08-19T11:19:59;5.15;;;2.90;;
11743;SDS011;5929;51.906;7.674;2022-08-19T11:22:29;6.43;;;3.10;;
11743;SDS011;5929;51.906;7.674;2022-08-19T11:24:56;7.88;;;2.95;;
11743;SDS011;5929;51.906;7.674;2022-08-19T11:27:23;4.65;;;2.70;;
11743;SDS011;5929;51.906;7.674;2022-08-19T11:29:50;5.25;;;2.92;;
11743;SDS011;5929;51.906;7.674;2022-08-19T11:32:19;4.00;;;2.33;;
11743;SDS011;5929;51.906;7.674;2022-08-19T11:34:46;5.30;;;2.42;;
11743;SDS011;5929;51.906;7.674;2022-08-19T11:37:12;6.10;;;3.08;;
11743;SDS011;5929;51.906;7.674;2022-08-19T11:39:40;6.07;;;3.22;;
11743;SDS011;5929;51.906;7.674;2022-08-19T11:42:07;4.63;;;3.20;;
11743;SDS011;5929;51.906;7.674;2022-08-19T11:44:48;6.38;;;3.03;;
11743;SDS011;5929;51.906;7.674;2022-08-19T11:47:15;5.75;;;3.60;;
11743;SDS011;5929;51.906;7.674;2022-08-19T11:49:43;6.97;;;3.95;;
11743;SDS011;5929;51.906;7.674;2022-08-19T11:52:11;7.85;;;3.25;;
11743;SDS011;5929;51.906;7.674;2022-08-19T11:54:38;6.30;;;4.05;;
11743;SDS011;5929;51.906;7.674;2022-08-19T11:57:05;5.85;;;3.28;;
11743;SDS011;5929;51.906;7.674;2022-08-19T11:59:32;6.10;;;3.85;;
11743;SDS011;5929;51.906;7.674;2022-08-19T12:01:59;6.35;;;4.35;;
11743;SDS011;5929;51.906;7.674;2022-08-19T12:04:25;5.88;;;4.22;;
11743;SDS011;5929;51.906;7.674;2022-08-19T12:06:54;6.13;;;4.60;;
11743;SDS011;5929;51.906;7.674;2022-08-19T12:09:23;5.70;;;4.43;;
11743;SDS011;5929;51.906;7.674;2022-08-19T12:11:50;7.82;;;5.20;;
11743;SDS011;5929;51.906;7.674;2022-08-19T12:14:17;7.53;;;6.07;;
11743;SDS011;5929;51.906;7.674;2022-08-19T12:16:44;9.02;;;5.97;;
11743;SDS011;5929;51.906;7.674;2022-08-19T12:19:11;6.78;;;5.50;;
11743;SDS011;5929;51.906;7.674;2022-08-19T12:21:38;8.73;;;6.80;;
11743;SDS011;5929;51.906;7.674;2022-08-19T12:24:06;9.30;;;6.03;;
11743;SDS011;5929;51.906;7.674;2022-08-19T12:26:33;9.38;;;7.28;;
11743;SDS011;5929;51.906;7.674;2022-08-19T12:29:01;7.32;;;5.82;;
11743;SDS011;5929;51.906;7.674;2022-08-19T12:31:29;8.10;;;6.55;;
11743;SDS011;5929;51.906;7.674;2022-08-19T12:33:56;8.25;;;6.07;;
11743;SDS011;5929;51.906;7.674;2022-08-19T12:36:23;8.32;;;6.05;;
11743;SDS011;5929;51.906;7.674;2022-08-19T12:38:52;8.90;;;6.53;;
11743;SDS011;5929;51.906;7.674;2022-08-19T12:41:21;9.50;;;6.30;;
11743;SDS011;5929;51.906;7.674;2022-08-19T12:43:48;13.65;;;7.53;;
11743;SDS011;5929;51.906;7.674;2022-08-19T12:46:15;8.30;;;6.00;;
11743;SDS011;5929;51.906;7.674;2022-08-19T12:48:43;9.10;;;5.75;;
11743;SDS011;5929;51.906;7.674;2022-08-19T12:51:11;9.20;;;6.20;;
11743;SDS011;5929;51.906;7.674;2022-08-19T12:53:39;7.95;;;5.10;;
11743;SDS011;5929;51.906;7.674;2022-08-19T12:56:07;7.65;;;5.20;;
11743;SDS011;5929;51.906;7.674;2022-08-19T12:58:35;7.70;;;5.43;;
11743;SDS011;5929;51.906;7.674;2022-08-19T13:01:06;6.78;;;4.43;;
11743;SDS011;5929;51.906;7.674;2022-08-19T13:03:35;9.70;;;4.82;;
11743;SDS011;5929;51.906;7.674;2022-08-19T13:06:02;7.30;;;5.15;;
11743;SDS011;5929;51.906;7.674;2022-08-19T13:08:29;8.20;;;4.68;;
11743;SDS011;5929;51.906;7.674;2022-08-19T13:10:55;5.25;;;4.20;;
11743;SDS011;5929;51.906;7.674;2022-08-19T13:13:23;6.07;;;4.20;;
11743;SDS011;5929;51.906;7.674;2022-08-19T13:15:51;7.70;;;4.97;;
11743;SDS011;5929;51.906;7.674;2022-08-19T13:18:18;9.13;;;5.35;;
11743;SDS011;5929;51.906;7.674;2022-08-19T13:20:45;7.07;;;4.88;;
11743;SDS011;5929;51.906;7.674;2022-08-19T13:23:12;6.20;;;5.00;;
11743;SDS011;5929;51.906;7.674;2022-08-19T13:25:39;10.20;;;4.85;;
11743;SDS011;5929;51.906;7.674;2022-08-19T13:28:06;5.85;;;4.68;;
11743;SDS011;5929;51.906;7.674;2022-08-19T13:30:32;6.70;;;4.22;;
11743;SDS011;5929;51.906;7.674;2022-08-19T13:33:18;5.75;;;4.10;;
11743;SDS011;5929;51.906;7.674;2022-08-19T13:35:46;6.03;;;3.70;;
11743;SDS011;5929;51.906;7.674;2022-08-19T13:38:17;5.60;;;3.75;;
11743;SDS011;5929;51.906;7.674;2022-08-19T13:40:46;5.22;;;3.15;;
11743;SDS011;5929;51.906;7.674;2022-08-19T13:43:15;6.85;;;4.00;;
11743;SDS011;5929;51.906;7.674;2022-08-19T13:45:43;6.35;;;4.30;;
11743;SDS011;5929;51.906;7.674;2022-08-19T13:48:10;5.55;;;4.05;;
11743;SDS011;5929;51.906;7.674;2022-08-19T13:50:40;7.13;;;4.57;;
11743;SDS011;5929;51.906;7.674;2022-08-19T13:53:09;7.13;;;4.88;;
11743;SDS011;5929;51.906;7.674;2022-08-19T13:55:37;9.05;;;5.13;;
11743;SDS011;5929;51.906;7.674;2022-08-19T13:58:04;6.63;;;5.18;;
11743;SDS011;5929;51.906;7.674;2022-08-19T14:00:32;7.18;;;4.57;;
11743;SDS011;5929;51.906;7.674;2022-08-19T14:03:01;9.65;;;4.65;;
11743;SDS011;5929;51.906;7.674;2022-08-19T14:05:29;6.43;;;4.18;;
11743;SDS011;5929;51.906;7.674;2022-08-19T14:07:59;7.20;;;4.82;;
11743;SDS011;5929;51.906;7.674;2022-08-19T14:10:26;7.72;;;4.57;;
11743;SDS011;5929;51.906;7.674;2022-08-19T14:12:56;5.88;;;4.78;;
11743;SDS011;5929;51.906;7.674;2022-08-19T14:15:25;6.88;;;4.38;;
11743;SDS011;5929;51.906;7.674;2022-08-19T14:17:52;7.85;;;5.13;;
11743;SDS011;5929;51.906;7.674;2022-08-19T14:20:19;6.05;;;4.40;;
11743;SDS011;5929;51.906;7.674;2022-08-19T14:22:47;6.45;;;4.78;;
11743;SDS011;5929;51.906;7.674;2022-08-19T14:25:17;7.43;;;4.65;;
11743;SDS011;5929;51.906;7.674;2022-08-19T14:27:46;6.75;;;4.80;;
11743;SDS011;5929;51.906;7.674;2022-08-19T14:30:14;9.20;;;4.95;;
11743;SDS011;5929;51.906;7.674;2022-08-19T14:32:42;9.60;;;4.95;;
11743;SDS011;5929;51.906;7.674;2022-08-19T14:35:09;7.20;;;4.82;;
11743;SDS011;5929;51.906;7.674;2022-08-19T14:37:39;8.25;;;4.82;;
11743;SDS011;5929;51.906;7.674;2022-08-19T14:40:07;7.20;;;4.78;;
11743;SDS011;5929;51.906;7.674;2022-08-19T14:42:36;7.68;;;4.57;;
11743;SDS011;5929;51.906;7.674;2022-08-19T14:45:06;7.82;;;5.28;;
11743;SDS011;5929;51.906;7.674;2022-08-19T14:47:34;7.63;;;4.53;;
11743;SDS011;5929;51.906;7.674;2022-08-19T14:50:03;6.07;;;4.90;;
11743;SDS011;5929;51.906;7.674;2022-08-19T14:52:31;6.43;;;4.63;;
11743;SDS011;5929;51.906;7.674;2022-08-19T14:54:58;7.05;;;4.65;;
11743;SDS011;5929;51.906;7.674;2022-08-19T14:57:25;6.40;;;4.85;;